createdAt,value
2022-09-07T00:02:36.827Z,100092.09
2022-09-07T00:07:39.663Z,100095.13
2022-09-07T00:12:42.803Z,100087.78
2022-09-07T00:17:46.916Z,100076.09
2022-09-07T00:22:49.637Z,100079.97
2022-09-07T00:27:52.381Z,100077.31
2022-09-07T00:32:56.451Z,100068.72
2022-09-07T00:37:59.245Z,100064.03
2022-09-07T00:43:02.085Z,100066.69
2022-09-07T00:48:10.026Z,100067.28
2022-09-07T00:53:15.775Z,100058.06
2022-09-07T00:58:18.883Z,100059.69
2022-09-07T01:03:25.828Z,100065.38
2022-09-07T01:08:29.841Z,100060.22
2022-09-07T01:13:33.171Z,100062.88
2022-09-07T01:18:42.551Z,100073.06
2022-09-07T01:24:14.234Z,100068.16
2022-09-07T01:29:21.718Z,100068.59
2022-09-07T01:34:26.430Z,100069.81
2022-09-07T01:39:35.590Z,100072.47
2022-09-07T01:44:41.321Z,100061.69
2022-09-07T01:49:48.956Z,100060.84
2022-09-07T01:54:53.935Z,100063.47
2022-09-07T02:00:02.498Z,100053.25
2022-09-07T02:05:18.622Z,100042.38
2022-09-07T02:10:25.747Z,100038.84
2022-09-07T02:15:34.243Z,100033.53
2022-09-07T02:20:38.981Z,100041.53
2022-09-07T02:25:44.508Z,100046.41
2022-09-07T02:30:49.006Z,100043.38
2022-09-07T02:35:52.289Z,100038.06
2022-09-07T02:40:56.406Z,100037.63
2022-09-07T02:46:16.058Z,100039.25
2022-09-07T02:51:24.176Z,100039.69
2022-09-07T02:56:36.026Z,100041.53
2022-09-07T03:01:48.648Z,100045.03
2022-09-07T03:06:54.434Z,100052.59
2022-09-07T03:11:57.379Z,100043.19
2022-09-07T03:17:02.245Z,100040.53
2022-09-07T03:22:05.341Z,100033.41
2022-09-07T03:27:08.087Z,100025.63
2022-09-07T03:32:12.359Z,100020.94
2022-09-07T03:37:15.212Z,100036.28
2022-09-07T03:42:17.997Z,100026.69
2022-09-07T03:47:22.128Z,100025.47
2022-09-07T03:52:24.857Z,100031.81
2022-09-07T03:57:27.687Z,100028.97
2022-09-07T04:02:31.893Z,100034.88
2022-09-07T04:07:34.744Z,100027.75
2022-09-07T04:12:37.767Z,100034.25
2022-09-07T04:17:41.801Z,100034.00
2022-09-07T04:22:44.661Z,100017.03
2022-09-07T04:27:47.457Z,100012.56
2022-09-07T04:32:51.627Z,100000.50
2022-09-07T04:37:54.371Z,99996.41
2022-09-07T04:42:57.104Z,99990.72
2022-09-07T04:48:01.201Z,99986.06
2022-09-07T04:53:04.038Z,99985.69
2022-09-07T04:58:06.835Z,99996.09
2022-09-07T05:03:10.958Z,99983.47
2022-09-07T05:08:13.697Z,99985.75
2022-09-07T05:13:16.676Z,99985.13
2022-09-07T05:18:21.256Z,99985.13
2022-09-07T05:23:24.368Z,99974.31
2022-09-07T05:28:27.320Z,99977.78
2022-09-07T05:38:54.318Z,99970.84
2022-09-07T05:49:21.628Z,99967.22
2022-09-07T05:54:24.459Z,99965.41
2022-09-07T05:59:27.247Z,99974.63
2022-09-07T06:04:31.327Z,99964.41
2022-09-07T06:09:34.143Z,99968.94
2022-09-07T06:14:36.995Z,99966.66
2022-09-07T06:19:41.075Z,99981.59
2022-09-07T06:24:44.119Z,99979.13
2022-09-07T06:29:46.901Z,99963.97
2022-09-07T06:34:51.031Z,99966.41
2022-09-07T06:39:53.814Z,99954.31
2022-09-07T06:44:57.300Z,99957.81
2022-09-07T06:50:01.518Z,99947.97
2022-09-07T06:55:04.964Z,99946.31
2022-09-07T07:00:08.893Z,99949.56
2022-09-07T07:05:13.140Z,99952.78
2022-09-07T07:10:17.837Z,99949.00
2022-09-07T07:15:22.779Z,99941.94
2022-09-07T07:20:26.941Z,99935.69
2022-09-07T07:25:29.973Z,99937.44
2022-09-07T07:30:32.979Z,99939.31
2022-09-07T07:35:37.055Z,99945.66
2022-09-07T07:40:39.985Z,99941.44
2022-09-07T07:51:09.876Z,99945.38
2022-09-07T07:56:14.825Z,99955.19
2022-09-07T08:01:18.535Z,99959.47
2022-09-07T08:06:22.626Z,99949.44
2022-09-07T08:11:25.871Z,99957.50
2022-09-07T08:16:28.692Z,99947.13
2022-09-07T08:21:32.729Z,99946.19
2022-09-07T08:26:35.388Z,99950.28
2022-09-07T08:31:38.172Z,99948.84
2022-09-07T08:36:42.288Z,99934.69
2022-09-07T08:41:58.902Z,99941.91
2022-09-07T08:47:04.692Z,99927.94
2022-09-07T08:52:12.601Z,99935.84
2022-09-07T08:57:27.433Z,99944.56
2022-09-07T09:06:10.906Z,99942.69
2022-09-07T09:08:04.538Z,99941.91
2022-09-07T09:13:16.022Z,99938.84
2022-09-07T09:18:30.681Z,99942.31
2022-09-07T09:23:38.208Z,99946.25
2022-09-07T09:28:41.080Z,99952.03
2022-09-07T09:33:43.743Z,99953.34
2022-09-07T09:38:47.764Z,99957.34
2022-09-07T09:43:54.157Z,99952.25
2022-09-07T09:48:58.327Z,99939.72
2022-09-07T09:54:05.901Z,99946.50
2022-09-07T10:04:36.978Z,99941.59
2022-09-07T10:09:42.502Z,99941.78
2022-09-07T10:14:46.338Z,99932.69
2022-09-07T10:19:49.561Z,99929.59
2022-09-07T10:24:53.553Z,99927.00
2022-09-07T10:29:56.418Z,99923.81
2022-09-07T10:35:09.455Z,99917.66
2022-09-07T10:40:22.875Z,99913.09
2022-09-07T10:45:32.224Z,99910.81
2022-09-07T10:50:42.202Z,99911.44
2022-09-07T10:55:53.069Z,99919.84
2022-09-07T11:01:06.669Z,99918.56
2022-09-07T11:06:16.177Z,99911.03
2022-09-07T11:12:00.805Z,99914.44
2022-09-07T11:16:53.812Z,99906.06
2022-09-07T11:22:00.867Z,99899.09
2022-09-07T11:27:11.044Z,99892.16
2022-09-07T11:32:18.566Z,99893.97
2022-09-07T11:37:24.377Z,99885.38
2022-09-07T11:42:48.551Z,99884.25
2022-09-07T11:47:56.628Z,99881.63
2022-09-07T11:53:01.318Z,99865.28
2022-09-07T11:58:17.248Z,99851.03
2022-09-07T12:03:38.011Z,99839.25
2022-09-07T12:08:51.478Z,99842.13
2022-09-07T12:14:08.168Z,99849.03
2022-09-07T12:19:18.801Z,99841.78
2022-09-07T12:24:40.331Z,99835.03
2022-09-07T12:29:45.668Z,99834.84
2022-09-07T12:34:53.833Z,99819.28
2022-09-07T12:40:34.875Z,99820.06
2022-09-07T12:45:53.013Z,99818.19
2022-09-07T12:50:58.860Z,99817.53
2022-09-07T12:56:19.186Z,99810.94
2022-09-07T13:01:32.757Z,99803.50
2022-09-07T13:07:05.588Z,99804.28
2022-09-07T13:17:56.316Z,99803.59
2022-09-07T13:23:26.722Z,99793.28
2022-09-07T13:28:33.138Z,99786.25
2022-09-07T13:33:52.636Z,99783.16
2022-09-07T13:38:55.848Z,99788.59
2022-09-07T13:44:00.725Z,99777.66
2022-09-07T13:49:09.745Z,99779.22
2022-09-07T13:54:18.969Z,99781.75
2022-09-07T13:59:23.797Z,99772.13
2022-09-07T14:04:30.794Z,99776.69
2022-09-07T14:09:34.688Z,99782.78
2022-09-07T14:14:37.319Z,99780.41
2022-09-07T14:19:43.347Z,99776.41
2022-09-07T14:24:49.449Z,99785.81
2022-09-07T14:29:52.527Z,99785.28
2022-09-07T14:34:56.631Z,99783.41
2022-09-07T14:39:59.327Z,99782.84
2022-09-07T14:45:19.011Z,99773.06
2022-09-07T14:50:24.735Z,99770.56
2022-09-07T14:55:30.424Z,99758.66
2022-09-07T15:00:33.450Z,99765.03
2022-09-07T15:05:48.571Z,99763.44
2022-09-07T15:16:27.426Z,99753.59
2022-09-07T15:21:32.855Z,99752.38
2022-09-07T15:32:04.834Z,99738.47
2022-09-07T15:47:56.331Z,99724.63
2022-09-07T15:53:00.998Z,99725.34
2022-09-07T15:58:11.586Z,99719.91
2022-09-07T16:03:14.770Z,99722.56
2022-09-07T16:08:26.121Z,99718.44
2022-09-07T16:13:31.372Z,99722.44
2022-09-07T16:18:35.155Z,99718.06
2022-09-07T16:23:40.020Z,99716.66
2022-09-07T16:28:44.687Z,99719.78
2022-09-07T16:33:47.451Z,99723.59
2022-09-07T16:38:55.851Z,99727.13
2022-09-07T16:43:59.442Z,99715.47
2022-09-07T16:49:02.076Z,99705.41
2022-09-07T16:54:06.488Z,99723.81
2022-09-07T16:59:10.216Z,99710.88
2022-09-07T17:04:12.868Z,99704.91
2022-09-07T17:09:16.905Z,99708.03
2022-09-07T17:14:19.869Z,99722.94
2022-09-07T17:19:30.468Z,99720.81
2022-09-07T17:24:34.624Z,99724.63
2022-09-07T17:29:37.727Z,99732.53
2022-09-07T17:34:40.457Z,99718.50
2022-09-07T17:39:44.878Z,99726.47
2022-09-07T17:44:52.799Z,99727.22
2022-09-07T17:49:55.681Z,99726.84
2022-09-07T17:55:01.324Z,99732.03
2022-09-07T18:00:11.750Z,99724.63
2022-09-07T18:05:15.105Z,99729.56
2022-09-07T18:10:19.258Z,99734.53
2022-09-07T18:15:22.144Z,99739.84
2022-09-07T18:20:24.947Z,99742.69
2022-09-07T18:25:29.334Z,99755.41
2022-09-07T18:30:32.568Z,99761.19
2022-09-07T18:40:40.068Z,99740.22
2022-09-07T18:45:42.877Z,99734.63
2022-09-07T18:50:45.603Z,99747.69
2022-09-07T18:55:50.747Z,99744.91
2022-09-07T19:00:58.002Z,99748.59
2022-09-07T19:06:03.620Z,99744.19
2022-09-07T19:11:09.133Z,99735.00
2022-09-07T19:16:13.945Z,99738.13
2022-09-07T19:21:19.507Z,99747.56
2022-09-07T19:26:24.792Z,99804.63
2022-09-07T19:31:28.499Z,99806.97
2022-09-07T19:36:33.385Z,99793.56
2022-09-07T19:41:40.932Z,99802.00
2022-09-07T19:46:44.694Z,99806.47
2022-09-07T19:51:49.392Z,99807.66
2022-09-07T19:56:53.411Z,99800.13
2022-09-07T20:01:56.088Z,99806.78
2022-09-07T20:06:58.703Z,99811.13
2022-09-07T20:12:03.811Z,99795.97
2022-09-07T20:17:06.541Z,99784.13
2022-09-07T20:22:09.125Z,99764.97
2022-09-07T20:27:13.024Z,99764.44
2022-09-07T20:32:16.746Z,99745.16
2022-09-07T20:37:19.347Z,99735.56
2022-09-07T20:42:23.276Z,99729.19
2022-09-07T20:47:25.937Z,99720.25
2022-09-07T20:52:28.559Z,99711.50
2022-09-07T20:57:32.538Z,99712.69
2022-09-07T21:02:35.824Z,99709.09
2022-09-07T21:07:38.792Z,99717.13
2022-09-07T21:12:42.868Z,99726.56
2022-09-07T21:17:45.496Z,99722.03
2022-09-07T21:22:48.202Z,99717.97
2022-09-07T21:27:52.159Z,99721.59
2022-09-07T21:32:54.732Z,99711.56
2022-09-07T21:37:57.373Z,99721.88
2022-09-07T21:43:01.305Z,99715.81
2022-09-07T21:48:04.292Z,99706.72
2022-09-07T21:53:06.923Z,99713.56
2022-09-07T21:58:10.868Z,99706.13
2022-09-07T22:03:13.646Z,99708.13
2022-09-07T22:08:17.106Z,99706.84
2022-09-07T22:13:21.084Z,99698.50
2022-09-07T22:18:23.656Z,99705.88
2022-09-07T22:23:26.252Z,99700.75
2022-09-07T22:28:31.288Z,99695.75
2022-09-07T22:33:33.967Z,99697.19
2022-09-07T22:38:36.726Z,99694.56
2022-09-07T22:43:41.305Z,99689.81
2022-09-07T22:48:44.390Z,99684.16
2022-09-07T22:53:46.991Z,99681.59
2022-09-07T22:58:52.463Z,99682.63
2022-09-07T23:03:56.154Z,99682.41
2022-09-07T23:09:00.287Z,99673.28
2022-09-07T23:14:06.531Z,99672.81
2022-09-07T23:19:10.577Z,99678.97
2022-09-07T23:24:14.438Z,99668.59
2022-09-07T23:29:20.783Z,99661.13
2022-09-07T23:34:23.368Z,99656.53
2022-09-07T23:39:26.088Z,99652.31
2022-09-07T23:44:30.970Z,99643.03
2022-09-07T23:49:33.929Z,99647.25
2022-09-07T23:54:36.759Z,99657.53
2022-09-07T23:59:41.093Z,99657.53
